Dades de l'estació automàtica Pinós
Resum diari
16:00 TU| Temperatura mitjana | 13.2 °C | |
|---|---|---|
| Temperatura màxima | 20.0 °C | 12:56 TU |
| Temperatura mínima | 6.2 °C | 4:16 TU |
| Humitat relativa mitjana | 70% | |
| Precipitació acumulada | 0.0 mm | |
| Ratxa màxima del vent (6 m) | 25.9 km/h - 116º | 15:13 TU |
| Irradiació solar global | 23.2 MJ/m2 | |
El tram horari està expressat en Temps Universal (TU). Cal sumar una hora en horari d'hivern i dues en horari d'estiu per passar a l'hora oficial.
Pinós
| Municipi | Pinós |
|---|---|
| Comarca | Solsonès |
| Altitud | 660 m |
| Data alta | 03.07.1995 |
| Estat actual | Operativa |
| Període TU |
TM °C |
TX °C |
TN °C |
HRM % |
PPT mm |
VVM (6 m) km/h |
DVM (6 m) graus |
VVX (6 m) km/h |
RS W/m2 |
|---|---|---|---|---|---|---|---|---|---|
| 00:00 - 00:30 | 8.7 | 9.1 | 8.3 | 88 | 0.0 | 4.7 | 88 | 11.5 | 0 |
| 00:30 - 01:00 | 8.3 | 8.4 | 7.8 | 90 | 0.0 | 4.7 | 92 | 9.7 | 0 |
| 01:00 - 01:30 | 7.9 | 8.3 | 7.2 | 92 | 0.0 | 4.7 | 86 | 11.5 | 0 |
| 01:30 - 02:00 | 7.6 | 8.0 | 7.2 | 94 | 0.0 | 4.7 | 83 | 9.7 | 0 |
| 02:00 - 02:30 | 7.3 | 7.8 | 6.9 | 94 | 0.0 | 5.0 | 71 | 9.7 | 0 |
| 02:30 - 03:00 | 7.8 | 8.0 | 7.5 | 93 | 0.0 | 4.3 | 84 | 9.0 | 0 |
| 03:00 - 03:30 | 7.5 | 8.1 | 6.9 | 93 | 0.0 | 4.7 | 86 | 10.8 | 0 |
| 03:30 - 04:00 | 7.1 | 7.5 | 6.7 | 93 | 0.0 | 4.7 | 77 | 9.0 | 0 |
| 04:00 - 04:30 | 6.7 | 7.0 | 6.2 | 93 | 0.0 | 5.0 | 71 | 9.0 | 0 |
| 04:30 - 05:00 | 7.1 | 7.3 | 6.9 | 93 | 0.0 | 4.0 | 73 | 6.5 | 4 |
| 05:00 - 05:30 | 7.9 | 8.3 | 7.3 | 91 | 0.0 | 4.0 | 86 | 9.4 | 26 |
| 05:30 - 06:00 | 8.1 | 9.6 | 7.4 | 92 | 0.0 | 2.9 | 77 | 6.8 | 77 |
| 06:00 - 06:30 | 10.2 | 10.7 | 9.7 | 85 | 0.0 | 5.0 | 55 | 9.0 | 219 |
| 06:30 - 07:00 | 11.6 | 12.3 | 10.7 | 79 | 0.0 | 3.6 | 74 | 8.6 | 320 |
| 07:00 - 07:30 | 12.6 | 13.0 | 12.2 | 76 | 0.0 | 4.7 | 48 | 9.0 | 409 |
| 07:30 - 08:00 | 13.9 | 14.7 | 13.0 | 66 | 0.0 | 2.5 | 106 | 10.4 | 486 |
| 08:00 - 08:30 | 14.8 | 15.4 | 14.1 | 62 | 0.0 | 5.0 | 191 | 14.0 | 536 |
| 08:30 - 09:00 | 15.0 | 15.6 | 14.3 | 64 | 0.0 | 4.0 | 181 | 11.5 | 588 |
| 09:00 - 09:30 | 15.4 | 16.0 | 14.8 | 60 | 0.0 | 3.6 | 138 | 13.7 | 671 |
| 09:30 - 10:00 | 16.1 | 16.6 | 15.7 | 59 | 0.0 | 7.2 | 199 | 16.2 | 741 |
| 10:00 - 10:30 | 16.6 | 17.2 | 15.8 | 54 | 0.0 | 7.6 | 232 | 16.9 | 666 |
| 10:30 - 11:00 | 17.2 | 17.6 | 16.3 | 51 | 0.0 | 7.9 | 234 | 19.1 | 863 |
| 11:00 - 11:30 | 17.3 | 18.0 | 16.5 | 49 | 0.0 | 8.3 | 242 | 20.5 | 607 |
| 11:30 - 12:00 | 17.3 | 18.2 | 16.6 | 47 | 0.0 | 4.7 | 246 | 13.7 | 581 |
| 12:00 - 12:30 | 19.2 | 19.6 | 18.4 | 44 | 0.0 | 9.0 | 219 | 24.8 | 1.040 |
| 12:30 - 13:00 | 19.3 | 20.0 | 18.8 | 43 | 0.0 | 8.6 | 250 | 19.8 | 1.008 |
| 13:00 - 13:30 | 18.3 | 19.4 | 17.6 | 46 | 0.0 | 6.8 | 202 | 17.3 | 475 |
| 13:30 - 14:00 | 18.6 | 19.5 | 17.3 | 44 | 0.0 | 5.0 | 178 | 24.5 | 412 |
| 14:00 - 14:30 | 18.7 | 19.6 | 17.2 | 56 | 0.0 | 9.7 | 200 | 23.0 | 871 |
| 14:30 - 15:00 | 18.6 | 19.3 | 18.1 | 55 | 0.0 | 7.6 | 160 | 20.5 | 772 |
| 15:00 - 15:30 | 17.6 | 18.1 | 16.9 | 55 | 0.0 | 9.0 | 150 | 25.9 | 587 |
| 15:30 - 16:00 | 18.1 | 18.4 | 17.4 | 56 | 0.0 | 6.8 | 167 | 20.9 | 551 |
| 16:00 - 16:30 | 17.5 | 18.1 | 16.2 | 59 | 0.0 | 8.6 | 171 | 22.0 | 386 |
Les dades en taronja només han passat un control de qualitat automàtic. Resta pendent la seva validació definitiva.